Time;durP1;ratioP1;P1;durP2;ratioP2;P2;SDS_P1;SDS_P2;PMS_P1;PMS_P2;Temp;Humidity;BMP_temperature;BMP_pressure;BME280_temperature;BME280_humidity;BME280_pressure;Samples;Min_cycle;Max_cycle;Signal;HPM_P1;HPM_P2
2022/05/13 00:00:33;;;;;;;4.07;2.07;;;;;;;19.31;55.36;99282.44;5051093;28;20170;-83
2022/05/13 00:02:58;;;;;;;6.20;2.10;;;;;;;19.29;55.54;99279.03;5051224;28;20246;-83
2022/05/13 00:05:24;;;;;;;7.73;2.70;;;;;;;19.29;55.50;99279.03;5051018;28;20177;-83
2022/05/13 00:07:50;;;;;;;6.57;1.90;;;;;;;18.97;57.12;99287.94;5050969;28;20713;-83
2022/05/13 00:10:16;;;;;;;6.27;2.97;;;;;;;18.79;57.65;99286.84;5050941;28;20183;-83
2022/05/13 00:12:41;;;;;;;5.17;2.00;;;;;;;18.58;58.28;99288.63;5051128;28;20263;-83
2022/05/13 00:15:11;;;;;;;4.20;2.40;;;;;;;18.67;58.48;99290.53;5050866;28;20174;-83
2022/05/13 00:17:37;;;;;;;3.80;2.20;;;;;;;18.89;57.53;99285.09;5050815;28;20205;-83
2022/05/13 00:20:04;;;;;;;3.70;1.97;;;;;;;18.95;57.12;99281.94;5049839;28;20234;-83
2022/05/13 00:22:29;;;;;;;3.67;1.90;;;;;;;18.99;57.04;99277.22;5050649;28;20182;-83
2022/05/13 00:24:55;;;;;;;7.80;2.00;;;;;;;18.91;56.72;99277.84;5050640;28;20208;-83
2022/05/13 00:27:22;;;;;;;5.00;2.00;;;;;;;18.80;56.92;99269.09;5050708;28;20244;-83
2022/05/13 00:29:48;;;;;;;6.50;2.27;;;;;;;18.54;57.69;99276.59;5049698;28;20192;-83
2022/05/13 00:32:14;;;;;;;5.23;2.40;;;;;;;18.51;58.41;99276.84;5050547;28;20186;-83
2022/05/13 00:34:39;;;;;;;3.73;2.10;;;;;;;18.37;58.81;99290.34;5050571;28;20518;-83
2022/05/13 00:37:05;;;;;;;8.33;2.10;;;;;;;18.47;58.30;99290.47;5050827;28;20253;-83
2022/05/13 00:39:30;;;;;;;5.20;2.33;;;;;;;18.60;58.07;99273.44;5050462;28;20620;-83
2022/05/13 00:42:05;;;;;;;3.97;2.03;;;;;;;18.59;58.34;99274.38;5050448;28;20221;-83
2022/05/13 00:44:30;;;;;;;8.43;2.27;;;;;;;18.57;58.46;99281.66;5049450;28;20352;-83
2022/05/13 00:46:56;;;;;;;3.67;2.30;;;;;;;18.60;58.27;99276.09;5049474;28;20656;-83
2022/05/13 00:49:22;;;;;;;4.20;1.93;;;;;;;18.62;57.96;99270.63;5050340;28;20174;-83
2022/05/13 00:51:48;;;;;;;5.47;2.73;;;;;;;18.69;57.95;99274.47;5049345;28;20186;-83
2022/05/13 00:54:15;;;;;;;6.27;2.47;;;;;;;18.77;57.47;99282.63;5050211;28;20185;-83
2022/05/13 00:56:43;;;;;;;4.33;1.93;;;;;;;18.76;57.80;99281.78;5050562;28;20641;-83
2022/05/13 00:59:12;;;;;;;6.37;2.50;;;;;;;18.68;58.05;99288.72;5050235;28;20265;-83
2022/05/13 01:01:38;;;;;;;4.07;2.37;;;;;;;18.57;58.18;99284.31;5050495;28;20178;-83
2022/05/13 01:04:10;;;;;;;3.93;2.03;;;;;;;18.43;59.17;99285.41;5050116;28;20192;-83
2022/05/13 01:06:36;;;;;;;45.77;10.87;;;;;;;18.42;59.13;99282.88;5050117;28;20185;-83
2022/05/13 01:09:03;;;;;;;7.43;3.80;;;;;;;18.57;58.14;99286.97;5056287;28;20181;-83
2022/05/13 01:11:33;;;;;;;9.37;3.10;;;;;;;18.62;57.49;99274.13;5056712;28;20528;-83
2022/05/13 01:14:06;;;;;;;7.27;2.93;;;;;;;18.53;58.26;99279.34;5056696;28;20657;-83
2022/05/13 01:18:05;;;;;;;5.13;2.77;;;;;;;18.50;58.25;99279.63;5057260;28;20170;-83
2022/05/13 01:19:18;;;;;;;4.27;2.40;;;;;;;18.41;59.00;99275.88;5056627;28;20171;-83
2022/05/13 01:21:45;;;;;;;6.40;2.73;;;;;;;18.38;58.81;99278.78;5056622;28;20680;-83
2022/05/13 01:24:10;;;;;;;3.23;2.00;;;;;;;18.35;59.50;99274.56;5055584;28;20288;-83
2022/05/13 01:26:36;;;;;;;4.00;2.23;;;;;;;18.35;59.50;99271.06;5055626;28;20195;-83
2022/05/13 01:29:02;;;;;;;5.13;2.23;;;;;;;18.35;59.57;99266.59;5056797;28;20181;-83
2022/05/13 01:31:37;;;;;;;7.80;3.93;;;;;;;18.40;59.26;99275.03;5057042;28;20636;-83
2022/05/13 01:34:06;;;;;;;5.20;2.57;;;;;;;18.43;59.07;99264.16;5056461;28;20748;-83
2022/05/13 01:36:31;;;;;;;4.73;2.63;;;;;;;18.31;59.40;99270.50;5056396;28;20178;-83
2022/05/13 01:38:58;;;;;;;5.40;2.70;;;;;;;18.22;60.24;99262.44;5055487;28;20200;-83
2022/05/13 01:41:25;;;;;;;4.37;2.10;;;;;;;18.18;60.23;99266.31;5056361;28;20172;-83
2022/05/13 01:43:51;;;;;;;5.73;2.73;;;;;;;18.23;60.12;99264.13;5055319;28;20637;-83
2022/05/13 01:46:19;;;;;;;2.90;1.70;;;;;;;18.26;59.89;99264.69;5055399;28;20181;-83
2022/05/13 01:48:45;;;;;;;4.37;2.27;;;;;;;18.34;59.33;99258.78;5056252;28;20184;-83
2022/05/13 01:51:11;;;;;;;6.00;2.97;;;;;;;18.23;59.68;99257.00;5056536;28;20601;-83
2022/05/13 01:53:37;;;;;;;5.17;2.37;;;;;;;18.16;59.94;99249.69;5055138;28;20624;-83
2022/05/13 01:56:03;;;;;;;5.20;2.43;;;;;;;18.04;60.70;99254.16;5056481;28;20173;-83
2022/05/13 01:58:29;;;;;;;5.67;2.60;;;;;;;17.99;61.22;99258.16;5056142;28;20181;-83
2022/05/13 02:00:56;;;;;;;4.37;2.10;;;;;;;18.04;60.88;99250.66;5055177;28;20178;-83
2022/05/13 02:06:07;;;;;;;6.30;2.80;;;;;;;18.11;60.08;99254.50;5056905;28;20574;-83
2022/05/13 02:08:34;;;;;;;6.07;2.17;;;;;;;18.01;60.46;99251.75;5056323;28;20173;-83
2022/05/13 02:11:00;;;;;;;5.60;2.60;;;;;;;17.85;61.44;99258.41;5056260;28;20174;-83
2022/05/13 02:13:26;;;;;;;4.70;2.23;;;;;;;17.80;61.89;99248.19;5055959;28;20261;-83
2022/05/13 02:15:54;;;;;;;3.77;2.03;;;;;;;17.75;62.53;99251.22;5055910;28;20177;-83
2022/05/13 02:18:21;;;;;;;5.17;2.70;;;;;;;17.72;62.14;99259.41;5054716;28;20194;-83
2022/05/13 02:20:47;;;;;;;3.97;2.33;;;;;;;17.71;62.40;99263.00;5051801;28;20253;-83
2022/05/13 02:23:13;;;;;;;3.77;2.60;;;;;;;17.71;62.73;99260.34;5052481;28;20178;-83
2022/05/13 02:25:39;;;;;;;6.80;3.37;;;;;;;17.60;62.67;99259.53;5052573;28;20173;-83
2022/05/13 02:28:06;;;;;;;4.47;2.10;;;;;;;17.54;62.79;99252.91;5052539;28;20178;-83
2022/05/13 02:30:32;;;;;;;4.97;2.63;;;;;;;17.64;62.77;99258.31;5052799;28;20181;-83
2022/05/13 02:32:57;;;;;;;6.10;2.13;;;;;;;17.68;62.87;99263.28;5052498;28;20189;-83
2022/05/13 02:35:23;;;;;;;5.27;2.40;;;;;;;17.65;62.40;99260.88;5052423;28;20178;-83
2022/05/13 02:37:49;;;;;;;3.90;1.80;;;;;;;17.70;62.20;99257.84;5052380;28;20224;-83
2022/05/13 02:40:15;;;;;;;9.23;2.80;;;;;;;17.60;62.34;99263.03;5052592;28;20184;-83
2022/05/13 02:42:41;;;;;;;6.20;2.30;;;;;;;17.66;62.39;99251.94;5052312;28;20178;-83
2022/05/13 02:45:10;;;;;;;5.13;2.13;;;;;;;17.66;62.38;99253.75;5052442;28;20204;-83
2022/05/13 02:47:39;;;;;;;6.17;2.27;;;;;;;17.55;63.08;99259.91;5052219;28;20188;-83
2022/05/13 02:50:19;;;;;;;6.23;2.47;;;;;;;17.50;62.96;99267.34;5052179;28;20212;-83
2022/05/13 02:52:45;;;;;;;8.53;2.50;;;;;;;17.56;62.54;99266.88;5052484;28;20253;-83
2022/05/13 02:55:11;;;;;;;4.67;2.60;;;;;;;17.45;62.95;99263.38;5051995;28;20203;-83
2022/05/13 02:57:37;;;;;;;3.80;2.30;;;;;;;17.41;63.32;99268.06;5051123;28;20178;-83
2022/05/13 03:00:04;;;;;;;4.47;2.37;;;;;;;17.47;63.44;99264.09;5052317;28;20185;-83
2022/05/13 03:02:30;;;;;;;3.73;2.30;;;;;;;17.41;63.22;99273.38;5051206;28;20212;-83
2022/05/13 03:04:55;;;;;;;3.57;2.17;;;;;;;17.49;63.16;99273.59;5052161;28;20603;-83
2022/05/13 03:07:21;;;;;;;6.00;2.33;;;;;;;17.54;63.28;99274.13;5050993;28;20185;-83
2022/05/13 03:09:46;;;;;;;5.17;2.60;;;;;;;17.41;63.51;99276.00;5050987;28;20201;-83
2022/05/13 03:12:12;;;;;;;5.17;2.90;;;;;;;17.24;64.04;99276.50;5052382;28;20245;-83
2022/05/13 03:14:38;;;;;;;6.83;2.70;;;;;;;17.20;64.83;99285.63;5050906;28;20170;-83
2022/05/13 03:17:05;;;;;;;6.10;2.60;;;;;;;17.09;65.12;99272.34;5051765;28;20193;-83
2022/05/13 03:19:31;;;;;;;3.80;2.37;;;;;;;17.12;65.42;99270.34;5050787;28;20188;-83
2022/05/13 03:21:56;;;;;;;3.63;2.40;;;;;;;17.17;65.53;99275.25;5051987;28;20177;-83
2022/05/13 03:24:22;;;;;;;6.60;2.57;;;;;;;17.33;64.81;99273.13;5051609;28;20211;-83
2022/05/13 03:26:48;;;;;;;4.80;2.70;;;;;;;17.32;64.84;99271.41;5051660;28;20178;-83
2022/05/13 03:29:13;;;;;;;8.40;2.57;;;;;;;17.38;64.65;99272.75;5051606;28;20679;-83
2022/05/13 03:31:39;;;;;;;4.10;2.00;;;;;;;17.47;64.19;99275.53;5050401;28;20260;-83
2022/05/13 03:34:04;;;;;;;4.67;2.53;;;;;;;17.41;64.44;99280.47;5051800;28;20253;-83
2022/05/13 03:36:31;;;;;;;5.43;2.57;;;;;;;17.40;64.48;99286.75;5051480;28;20612;-83
2022/05/13 03:38:57;;;;;;;5.17;2.87;;;;;;;17.50;64.10;99282.41;5050517;28;20210;-83
2022/05/13 03:41:22;;;;;;;6.00;2.97;;;;;;;17.55;63.94;99285.56;5051288;28;20241;-83
2022/05/13 03:43:47;;;;;;;6.03;2.50;;;;;;;17.64;63.71;99285.69;5050371;28;20212;-83
2022/05/13 03:46:13;;;;;;;5.17;2.67;;;;;;;17.61;63.87;99285.91;5050378;28;20266;-83
2022/05/13 03:48:38;;;;;;;5.00;2.60;;;;;;;17.48;64.47;99279.84;5051298;28;20634;-83
2022/05/13 03:51:04;;;;;;;4.73;2.80;;;;;;;17.30;65.38;99285.75;5051265;28;20693;-83
2022/05/13 03:53:29;;;;;;;7.03;2.60;;;;;;;17.30;65.51;99289.25;5051554;28;20173;-83
2022/05/13 03:55:55;;;;;;;5.10;2.73;;;;;;;17.43;65.48;99297.06;5051514;28;20193;-83
2022/05/13 03:58:20;;;;;;;8.57;2.90;;;;;;;17.41;65.99;99294.56;5050193;28;20633;-83
2022/05/13 04:00:46;;;;;;;8.63;2.83;;;;;;;17.49;65.72;99302.75;5051115;28;20208;-83
2022/05/13 04:03:13;;;;;;;5.87;2.60;;;;;;;17.60;65.54;99297.50;5051002;28;20517;-83
2022/05/13 04:11:07;;;;;;;3.67;2.03;;;;;;;17.63;66.77;99323.78;5051281;28;20202;-83
2022/05/13 04:16:16;;;;;;;5.07;2.77;;;;;;;17.97;65.22;99326.41;5051446;28;20530;-83
2022/05/13 04:18:45;;;;;;;5.60;2.20;;;;;;;17.93;65.40;99330.25;5050808;28;20174;-83
2022/05/13 04:21:20;;;;;;;4.77;2.47;;;;;;;18.05;65.48;99337.25;5050761;28;20177;-84
2022/05/13 04:23:48;;;;;;;4.33;2.47;;;;;;;18.17;64.79;99329.13;5050991;28;20220;-84
2022/05/13 04:26:15;;;;;;;4.97;2.73;;;;;;;18.34;62.83;99323.31;5050703;28;20173;-83
2022/05/13 04:28:45;;;;;;;4.63;2.67;;;;;;;18.57;61.86;99324.13;5050683;28;20246;-83
2022/05/13 04:31:13;;;;;;;4.27;2.33;;;;;;;18.80;61.90;99325.72;5049720;28;20210;-84
2022/05/13 04:33:39;;;;;;;9.30;3.63;;;;;;;19.01;61.60;99317.75;5051134;28;20187;-84
2022/05/13 04:36:19;;;;;;;5.47;3.03;;;;;;;19.21;60.96;99324.06;5049533;28;20570;-84
2022/05/13 04:38:54;;;;;;;5.10;2.53;;;;;;;19.37;59.97;99325.31;5049595;28;20183;-84
2022/05/13 04:44:06;;;;;;;5.83;3.20;;;;;;;19.67;59.77;99331.63;5050630;28;20216;-84
2022/05/13 04:46:32;;;;;;;5.67;2.63;;;;;;;19.70;58.97;99342.84;5050712;28;20174;-84
2022/05/13 04:48:57;;;;;;;4.83;2.13;;;;;;;19.76;58.81;99347.59;5049452;28;20180;-84
2022/05/13 04:51:23;;;;;;;6.23;2.67;;;;;;;20.00;57.50;99341.97;5049421;28;20181;-84
2022/05/13 04:53:51;;;;;;;4.47;2.43;;;;;;;20.18;55.93;99337.66;5050145;28;20225;-84
2022/05/13 04:56:18;;;;;;;6.67;3.20;;;;;;;20.35;55.11;99338.88;5050328;28;20536;-84
2022/05/13 04:58:44;;;;;;;7.27;2.67;;;;;;;20.47;56.02;99337.75;5049349;28;20272;-85
2022/05/13 05:01:10;;;;;;;5.80;2.83;;;;;;;20.73;55.46;99337.09;5050225;28;20673;-84
2022/05/13 05:03:36;;;;;;;4.73;2.53;;;;;;;21.36;53.65;99338.34;5050173;28;20209;-84
2022/05/13 05:06:03;;;;;;;6.17;3.10;;;;;;;22.11;51.21;99334.75;5050186;28;20627;-84
2022/05/13 05:08:29;;;;;;;4.37;2.13;;;;;;;22.82;48.70;99326.84;5049198;28;20181;-83
2022/05/13 05:10:56;;;;;;;9.03;3.00;;;;;;;23.56;46.78;99320.06;5050369;28;20178;-84
2022/05/13 05:13:30;;;;;;;4.70;2.17;;;;;;;24.13;45.56;99333.78;5050663;28;20620;-83
2022/05/13 05:15:57;;;;;;;5.27;2.27;;;;;;;24.34;44.81;99331.50;5050608;28;20522;-83
2022/05/13 05:18:22;;;;;;;4.30;2.50;;;;;;;24.47;44.32;99326.53;5049998;28;20694;-83
2022/05/13 05:20:48;;;;;;;5.53;2.30;;;;;;;24.60;43.66;99324.22;5050001;28;20213;-83
2022/05/13 05:23:20;;;;;;;3.57;1.93;;;;;;;24.74;42.39;99323.53;5050437;28;20257;-84
2022/05/13 05:25:46;;;;;;;3.37;1.93;;;;;;;24.75;42.46;99321.69;5050268;28;20219;-83
2022/05/13 05:28:12;;;;;;;2.37;1.40;;;;;;;24.69;42.78;99325.88;5049896;28;20579;-83
2022/05/13 05:30:39;;;;;;;6.43;2.73;;;;;;;24.84;43.43;99328.81;5048934;28;20182;-83
2022/05/13 05:33:05;;;;;;;5.53;2.37;;;;;;;25.05;42.82;99326.47;5049819;28;20178;-83
2022/05/13 05:35:31;;;;;;;3.57;2.20;;;;;;;25.10;42.39;99328.63;5050111;28;20170;-83
2022/05/13 05:37:56;;;;;;;3.87;2.03;;;;;;;25.21;42.49;99322.94;5049785;28;20178;-83
2022/05/13 05:40:22;;;;;;;4.57;2.07;;;;;;;25.23;41.69;99328.97;5050026;28;20206;-83
2022/05/13 05:42:48;;;;;;;5.10;2.15;;;;;;;25.31;42.00;99324.44;5048758;28;20170;-83
2022/05/13 05:45:16;;;;;;;3.87;2.00;;;;;;;25.35;42.02;99324.91;5050218;28;20194;-83
2022/05/13 05:47:41;;;;;;;2.85;1.83;;;;;;;25.22;41.76;99327.28;5049658;28;20170;-84
2022/05/13 05:50:11;;;;;;;3.78;2.08;;;;;;;25.09;41.54;99329.63;5050198;28;20180;-83
2022/05/13 05:52:36;;;;;;;3.80;2.30;;;;;;;24.97;41.90;99331.81;5050149;28;20174;-83
2022/05/13 05:58:09;;;;;;;7.97;2.97;;;;;;;24.67;43.05;99333.25;5053603;28;20168;-83
2022/05/13 06:00:38;;;;;;;3.73;1.90;;;;;;;24.59;43.59;99329.72;5051893;28;20542;-83
2022/05/13 06:03:04;;;;;;;4.87;2.40;;;;;;;24.63;42.91;99331.91;5052936;28;20227;-83
2022/05/13 06:05:29;;;;;;;7.57;2.77;;;;;;;24.61;43.63;99328.53;5051878;28;20202;-84
2022/05/13 06:07:57;;;;;;;3.87;1.93;;;;;;;24.52;43.88;99337.59;5052884;28;20260;-83
2022/05/13 06:10:23;;;;;;;3.97;2.10;;;;;;;24.66;44.44;99336.94;5052792;28;20254;-83
2022/05/13 06:12:49;;;;;;;3.73;2.27;;;;;;;24.84;43.46;99332.28;5052747;28;20624;-83
2022/05/13 06:15:16;;;;;;;4.57;2.00;;;;;;;24.89;43.93;99332.66;5052723;28;20528;-83
2022/05/13 06:17:46;;;;;;;4.97;2.30;;;;;;;25.15;43.83;99327.13;5052999;28;20177;-83
2022/05/13 06:20:12;;;;;;;4.53;1.93;;;;;;;25.22;43.88;99321.91;5052937;28;20158;-83
2022/05/13 06:22:38;;;;;;;2.87;1.87;;;;;;;25.36;43.66;99323.91;5052558;28;20197;-83
2022/05/13 06:25:04;;;;;;;12.23;5.30;;;;;;;25.58;43.32;99323.22;5052497;28;20668;-83
2022/05/13 06:27:30;;;;;;;5.17;2.50;;;;;;;25.97;43.28;99328.69;5052822;28;20170;-83
2022/05/13 06:29:56;;;;;;;5.37;2.10;;;;;;;26.26;42.50;99322.69;5052771;28;20249;-83
2022/05/13 06:32:22;;;;;;;5.97;2.53;;;;;;;26.65;41.33;99320.78;5052497;28;20181;-84
2022/05/13 06:34:47;;;;;;;5.97;2.57;;;;;;;27.18;40.83;99318.03;5052725;28;20170;-83
2022/05/13 06:37:13;;;;;;;3.28;1.77;;;;;;;27.48;38.72;99320.81;5052415;28;20629;-83
2022/05/13 06:39:38;;;;;;;23.02;7.57;;;;;;;27.99;38.83;99312.66;5052635;28;20173;-82
2022/05/13 06:42:04;;;;;;;2.58;1.70;;;;;;;28.27;36.94;99320.94;5052503;28;20188;-83
2022/05/13 06:44:30;;;;;;;4.20;1.88;;;;;;;28.59;36.72;99312.38;5051277;28;20555;-83
2022/05/13 06:46:55;;;;;;;4.28;1.90;;;;;;;28.58;35.80;99310.72;5052279;28;20170;-84
2022/05/13 06:49:20;;;;;;;4.47;1.92;;;;;;;28.65;36.45;99310.81;5051334;28;20177;-83
2022/05/13 06:51:46;;;;;;;4.75;2.05;;;;;;;28.92;36.03;99303.81;5052472;28;20533;-84
2022/05/13 06:54:12;;;;;;;3.60;1.80;;;;;;;29.17;36.11;99305.06;5052045;28;20272;-84
2022/05/13 06:56:41;;;;;;;8.15;2.25;;;;;;;29.28;36.42;99307.28;5052156;28;20241;-84
2022/05/13 06:59:07;;;;;;;4.18;2.33;;;;;;;29.35;35.06;99307.34;5051129;28;20654;-84
2022/05/13 07:01:33;;;;;;;4.45;2.05;;;;;;;29.31;36.18;99309.59;5052032;28;20169;-84
2022/05/13 07:03:59;;;;;;;4.53;1.83;;;;;;;29.43;35.28;99304.50;5051946;28;20727;-84
2022/05/13 07:06:24;;;;;;;4.35;2.10;;;;;;;29.47;35.30;99305.75;5051721;28;20174;-84
2022/05/13 07:08:50;;;;;;;5.15;1.88;;;;;;;29.50;35.97;99306.19;5050994;28;20174;-84
2022/05/13 07:11:17;;;;;;;13.90;5.57;;;;;;;29.47;33.97;99306.59;5050924;28;20205;-84
2022/05/13 07:13:42;;;;;;;9.77;3.28;;;;;;;29.53;34.57;99311.22;5050879;28;20182;-84
2022/05/13 07:16:08;;;;;;;14.82;4.35;;;;;;;29.73;34.70;99312.16;5051787;28;20618;-85
2022/05/13 07:18:36;;;;;;;5.50;2.40;;;;;;;29.80;35.00;99302.25;5052016;28;20177;-84
2022/05/13 07:21:05;;;;;;;3.63;1.98;;;;;;;30.02;35.50;99304.88;5051071;28;20326;-85
2022/05/13 07:23:30;;;;;;;6.53;2.67;;;;;;;30.24;34.92;99301.03;5051466;28;20224;-86
2022/05/13 07:25:57;;;;;;;5.13;2.40;;;;;;;30.38;34.16;99295.47;5051632;28;20625;-85
2022/05/13 07:28:23;;;;;;;4.70;2.00;;;;;;;30.47;33.97;99290.72;5050659;28;20178;-85
2022/05/13 07:30:48;;;;;;;2.92;1.60;;;;;;;30.53;35.13;99303.41;5051582;28;20180;-85
2022/05/13 07:33:14;;;;;;;8.68;1.83;;;;;;;30.60;34.73;99293.47;5051690;28;20177;-86
2022/05/13 07:35:40;;;;;;;3.08;1.80;;;;;;;30.50;35.06;99293.03;5051124;28;20174;-85
2022/05/13 07:38:07;;;;;;;4.35;2.00;;;;;;;30.57;34.89;99298.44;5051441;28;20533;-85
2022/05/13 07:43:16;;;;;;;4.85;1.98;;;;;;;31.00;34.31;99289.78;5051839;28;20196;-86
2022/05/13 07:45:42;;;;;;;7.18;2.88;;;;;;;30.90;33.59;99289.34;5051615;28;20620;-86
2022/05/13 07:48:08;;;;;;;5.20;1.70;;;;;;;30.81;34.70;99282.47;5050901;28;20519;-86
2022/05/13 07:50:34;;;;;;;3.67;1.80;;;;;;;30.86;35.00;99285.38;5051437;28;20174;-85
2022/05/13 07:52:59;;;;;;;9.77;3.95;;;;;;;30.86;33.26;99285.38;5050258;28;20173;-87
2022/05/13 07:55:25;;;;;;;5.22;2.28;;;;;;;30.97;34.63;99287.53;5050733;28;20276;-86
2022/05/13 07:57:51;;;;;;;5.25;2.40;;;;;;;31.25;34.83;99281.88;5050167;28;20264;-87
2022/05/13 08:00:32;;;;;;;4.13;1.92;;;;;;;31.46;35.23;99280.84;5051617;28;20176;-86
2022/05/13 08:03:00;;;;;;;3.22;1.90;;;;;;;31.25;33.73;99275.63;5050437;28;20179;-87
2022/05/13 08:05:29;;;;;;;2.63;1.30;;;;;;;31.36;32.58;99283.97;5050936;28;20186;-87
2022/05/13 08:08:00;;;;;;;8.10;2.33;;;;;;;31.41;33.97;99280.63;5045042;28;20270;-87
2022/05/13 08:10:25;;;;;;;4.72;1.63;;;;;;;31.53;35.14;99278.94;5032983;28;20713;-86
2022/05/13 08:12:51;;;;;;;6.38;1.77;;;;;;;31.72;33.25;99272.66;5036432;28;20257;-88
2022/05/13 08:15:17;;;;;;;1.90;1.33;;;;;;;31.80;31.94;99275.13;5035137;28;20178;-86
2022/05/13 08:17:42;;;;;;;4.95;1.83;;;;;;;31.63;30.97;99278.53;5028055;28;20267;-87
2022/05/13 08:20:08;;;;;;;2.42;1.30;;;;;;;31.80;31.18;99275.13;5029688;28;20170;-88
2022/05/13 08:22:34;;;;;;;5.15;1.77;;;;;;;31.91;30.53;99271.78;5029414;28;20231;-87
2022/05/13 08:25:01;;;;;;;3.20;1.65;;;;;;;32.05;30.32;99272.59;5030330;28;20194;-87
2022/05/13 08:27:26;;;;;;;3.53;1.67;;;;;;;32.25;31.20;99270.63;5030011;28;20626;-86
2022/05/13 08:29:53;;;;;;;3.47;2.10;;;;;;;32.32;30.74;99260.56;5029354;28;20243;-86
2022/05/13 08:32:19;;;;;;;4.53;1.50;;;;;;;32.22;30.69;99258.31;5030117;28;20178;-86
2022/05/13 08:34:46;;;;;;;4.45;1.90;;;;;;;32.22;30.25;99263.75;5029042;28;20173;-87
2022/05/13 08:37:13;;;;;;;4.03;1.77;;;;;;;32.29;29.55;99257.44;5030529;28;20181;-87
2022/05/13 08:39:39;;;;;;;2.92;1.80;;;;;;;32.46;28.91;99255.88;5030479;28;20174;-86
2022/05/13 08:42:37;;;;;;;3.83;1.80;;;;;;;32.40;30.32;99254.03;5030595;28;20184;-86
2022/05/13 08:45:07;;;;;;;2.65;1.33;;;;;;;32.08;28.25;99255.88;5031073;28;20251;-87
2022/05/13 08:47:49;;;;;;;3.08;1.73;;;;;;;32.15;28.87;99252.06;5031356;28;20245;-87
2022/05/13 08:50:32;;;;;;;4.60;2.60;;;;;;;32.24;30.12;99247.22;5030810;28;20219;-86
2022/05/13 08:53:36;;;;;;;5.38;1.63;;;;;;;32.30;29.02;99245.53;5029552;28;20174;-87
2022/05/13 08:56:07;;;;;;;2.70;1.40;;;;;;;32.32;29.00;99246.16;5015489;28;20571;-87
2022/05/13 08:58:55;;;;;;;4.22;2.00;;;;;;;32.37;29.23;99243.59;5034949;28;20636;-87
2022/05/13 09:01:27;;;;;;;3.72;1.67;;;;;;;32.46;28.32;99236.88;5043080;28;20268;-86
2022/05/13 09:04:24;;;;;;;3.75;1.65;;;;;;;32.25;29.38;99237.22;5048420;28;20697;-87
2022/05/13 09:06:59;;;;;;;3.72;1.70;;;;;;;32.37;29.26;99230.88;5052084;27;20257;-87
2022/05/13 09:09:25;;;;;;;3.83;1.80;;;;;;;31.98;29.59;99234.59;5048856;28;20184;-88
2022/05/13 09:12:29;;;;;;;3.33;1.55;;;;;;;32.11;28.60;99228.31;5049403;28;20162;-86
2022/05/13 09:15:32;;;;;;;3.33;1.33;;;;;;;32.23;29.22;99221.19;5032008;28;20177;-86
2022/05/13 09:18:04;;;;;;;2.40;1.25;;;;;;;31.92;27.19;99230.03;5048293;28;20177;-88
2022/05/13 09:20:40;;;;;;;2.20;1.30;;;;;;;31.92;28.65;99224.59;5048625;28;20178;-86
2022/05/13 09:23:11;;;;;;;4.00;1.40;;;;;;;32.17;28.88;99222.03;5049603;28;20186;-86
2022/05/13 09:25:58;;;;;;;4.07;1.45;;;;;;;32.35;26.90;99219.41;5048799;28;20193;-89
2022/05/13 09:28:27;;;;;;;2.00;1.42;;;;;;;32.45;26.71;99219.78;5049349;28;20308;-87
2022/05/13 09:31:03;;;;;;;4.97;1.27;;;;;;;32.73;25.21;99212.06;5053065;28;20170;-86
2022/05/13 09:33:39;;;;;;;3.13;1.50;;;;;;;32.80;25.82;99201.19;5052064;28;20173;-87
2022/05/13 09:36:27;;;;;;;2.67;0.90;;;;;;;33.00;25.55;99201.81;5052829;28;20162;-87
2022/05/13 09:38:57;;;;;;;2.97;1.60;;;;;;;32.96;25.96;99200.63;5054994;27;20637;-87
2022/05/13 09:41:35;;;;;;;2.03;0.98;;;;;;;32.43;24.35;99193.91;5052294;28;20609;-86
2022/05/13 09:44:26;;;;;;;2.88;1.45;;;;;;;32.29;25.11;99192.31;5051470;28;20190;-88
2022/05/13 09:47:08;;;;;;;3.40;1.20;;;;;;;31.93;25.16;99188.31;5051367;28;20184;-88
2022/05/13 09:49:39;;;;;;;2.45;1.58;;;;;;;32.01;24.29;99174.56;5050631;28;20238;-86
2022/05/13 09:52:31;;;;;;;3.63;1.25;;;;;;;32.36;24.96;99187.69;5051767;28;20196;-87
2022/05/13 09:55:11;;;;;;;2.22;1.20;;;;;;;32.33;23.79;99169.13;5050835;28;20249;-86
2022/05/13 09:57:39;;;;;;;2.47;1.25;;;;;;;32.37;23.86;99170.34;5035548;28;20216;-86
2022/05/13 10:00:16;;;;;;;3.00;1.20;;;;;;;32.48;24.60;99166.94;5051355;28;20190;-86
2022/05/13 10:02:45;;;;;;;5.07;1.52;;;;;;;32.82;24.90;99163.75;5053086;28;20218;-87
2022/05/13 10:05:19;;;;;;;3.63;1.13;;;;;;;32.90;22.79;99160.75;5052169;28;20201;-87
2022/05/13 10:08:09;;;;;;;3.63;1.67;;;;;;;33.33;22.59;99148.00;5052519;28;20169;-86
2022/05/13 10:16:27;;;;;;;7.07;3.67;;;;;;;33.64;23.35;99146.22;5052611;28;20177;-86
2022/05/13 10:19:36;;;;;;;2.05;1.23;;;;;;;33.90;22.71;99127.66;5052653;28;20174;-86
2022/05/13 10:22:11;;;;;;;1.92;1.05;;;;;;;34.02;23.37;99130.41;5051960;28;20654;-86
2022/05/13 10:24:45;;;;;;;1.83;0.90;;;;;;;34.03;20.87;99123.09;5051150;28;20193;-86
2022/05/13 10:27:46;;;;;;;2.22;1.23;;;;;;;34.28;21.00;99119.16;5051147;28;20226;-86
2022/05/13 10:30:23;;;;;;;3.00;1.30;;;;;;;34.64;23.36;99122.81;5053159;28;20215;-86
2022/05/13 10:33:00;;;;;;;3.80;1.20;;;;;;;34.71;20.90;99112.63;5051059;28;20260;-86
2022/05/13 10:35:32;;;;;;;5.20;1.40;;;;;;;34.86;20.17;99115.69;5051212;28;20218;-86
2022/05/13 10:38:19;;;;;;;1.88;0.93;;;;;;;34.51;21.99;99108.31;5052249;28;20743;-86
2022/05/13 10:40:47;;;;;;;1.80;0.60;;;;;;;34.36;21.39;99105.22;5049909;27;20548;-86
2022/05/13 10:43:27;;;;;;;3.55;0.75;;;;;;;34.61;19.95;99104.22;5051023;28;20178;-86
2022/05/13 10:45:57;;;;;;;2.05;0.90;;;;;;;34.69;19.62;99096.53;5051810;28;20234;-86
2022/05/13 10:48:29;;;;;;;2.97;1.00;;;;;;;34.41;18.75;99091.72;5050808;28;20236;-85
2022/05/13 10:51:25;;;;;;;2.03;1.00;;;;;;;34.52;20.24;99099.09;5051860;28;20189;-86
2022/05/13 10:54:39;;;;;;;2.25;1.10;;;;;;;34.36;19.33;99083.44;5053150;27;20683;-86
2022/05/13 10:57:18;;;;;;;1.95;0.80;;;;;;;34.45;20.45;99083.94;5028217;28;20186;-86
2022/05/13 11:00:09;;;;;;;3.83;1.17;;;;;;;34.69;19.91;99076.63;5050821;28;20306;-88
2022/05/13 11:03:19;;;;;;;1.52;0.77;;;;;;;35.07;20.05;99079.72;5051953;28;20249;-88
2022/05/13 11:05:56;;;;;;;1.63;0.82;;;;;;;35.16;18.47;99067.38;5050392;27;20684;-87
2022/05/13 11:08:43;;;;;;;2.33;0.90;;;;;;;35.18;18.11;99065.25;5051960;28;20157;-86
2022/05/13 11:11:33;;;;;;;2.92;1.35;;;;;;;35.38;19.57;99070.28;5050628;28;20252;-86
2022/05/13 11:14:22;;;;;;;2.67;1.05;;;;;;;35.31;21.10;99062.25;5050243;28;20540;-86
2022/05/13 11:16:58;;;;;;;2.00;0.80;;;;;;;35.78;20.59;99052.00;5051588;28;20624;-86
2022/05/13 11:19:40;;;;;;;1.83;0.82;;;;;;;35.55;19.53;99050.22;5050734;28;20165;-87
2022/05/13 11:22:25;;;;;;;4.15;1.00;;;;;;;35.31;19.94;99047.78;5050274;28;20184;-88
2022/05/13 11:28:01;;;;;;;5.68;1.20;;;;;;;35.05;20.01;99047.25;5051103;28;20250;-89
2022/05/13 11:30:45;;;;;;;2.00;1.02;;;;;;;35.22;20.91;99036.44;5050215;28;20237;-86
2022/05/13 11:33:29;;;;;;;2.35;0.90;;;;;;;35.45;21.03;99025.47;5050889;28;20625;-87
2022/05/13 11:36:12;;;;;;;2.20;0.98;;;;;;;35.67;21.65;99031.06;5050173;28;20686;-87
2022/05/13 11:38:59;;;;;;;3.10;1.20;;;;;;;36.01;20.67;99023.81;5050825;28;20234;-87
2022/05/13 11:41:43;;;;;;;2.72;1.23;;;;;;;36.29;21.00;99029.19;5050533;28;20261;-86
2022/05/13 11:44:09;;;;;;;2.67;0.90;;;;;;;36.45;21.25;99025.63;5050080;28;20190;-87
2022/05/13 11:46:56;;;;;;;2.53;0.98;;;;;;;35.64;21.11;99028.84;5050706;28;20166;-87
2022/05/13 11:49:26;;;;;;;1.30;0.68;;;;;;;35.57;21.22;99017.25;5051082;28;20162;-87
2022/05/13 11:51:54;;;;;;;2.47;0.95;;;;;;;36.02;21.25;99017.25;5049614;28;20162;-88
2022/05/13 11:54:22;;;;;;;1.50;0.80;;;;;;;35.92;19.05;99006.16;5050407;28;20196;-88
2022/05/13 11:56:49;;;;;;;2.25;0.88;;;;;;;34.89;21.13;99017.16;5050746;28;20328;-90
2022/05/13 11:59:27;;;;;;;1.33;0.70;;;;;;;35.06;21.76;99005.31;5049772;27;20188;-89
2022/05/13 12:02:18;;;;;;;2.08;0.85;;;;;;;35.19;21.62;99001.50;5050529;28;20547;-87
2022/05/13 12:05:26;;;;;;;2.22;0.80;;;;;;;35.76;21.53;98991.41;5050412;27;20265;-86
2022/05/13 12:08:03;;;;;;;2.50;1.20;;;;;;;35.76;21.50;98986.78;5049239;27;20169;-88
2022/05/13 12:10:40;;;;;;;2.95;1.00;;;;;;;35.56;20.26;98980.16;5049822;28;20624;-86
2022/05/13 12:13:23;;;;;;;1.65;0.80;;;;;;;35.82;19.66;98978.69;5050691;28;20185;-87
2022/05/13 12:16:32;;;;;;;1.77;0.90;;;;;;;35.71;20.02;98977.69;5050429;28;20169;-87
2022/05/13 12:19:21;;;;;;;2.60;0.90;;;;;;;35.73;20.04;98968.19;5054583;28;20177;-86